Time;durP1;ratioP1;P1;durP2;ratioP2;P2;SDS_P1;SDS_P2;PMS_P1;PMS_P2;Temp;Humidity;BMP_temperature;BMP_pressure;BME280_temperature;BME280_humidity;BME280_pressure;Samples;Min_cycle;Max_cycle;Signal;HPM_P1;HPM_P2
2023/05/25 00:00:12;;;;;;;18.45;4.68;;;;;;;11.62;100.00;102725.00;4987496;28;20096;-61
2023/05/25 00:02:45;;;;;;;16.95;4.80;;;;;;;11.70;100.00;102726.72;4989865;28;20536;-62
2023/05/25 00:05:11;;;;;;;21.02;4.72;;;;;;;11.82;100.00;102726.63;4987817;28;20026;-61
2023/05/25 00:07:36;;;;;;;15.63;4.32;;;;;;;11.91;100.00;102730.06;5002211;28;20733;-61
2023/05/25 00:10:02;;;;;;;18.38;4.43;;;;;;;11.96;100.00;102728.25;4991259;28;20057;-61
2023/05/25 00:12:28;;;;;;;17.80;4.72;;;;;;;12.03;100.00;102722.03;4992764;28;20050;-62
2023/05/25 00:14:53;;;;;;;20.85;5.25;;;;;;;12.10;100.00;102734.31;4990831;28;20385;-61
2023/05/25 00:17:20;;;;;;;16.52;5.18;;;;;;;12.21;100.00;102728.91;4992510;28;20034;-61
2023/05/25 00:19:46;;;;;;;21.00;5.10;;;;;;;12.28;100.00;102724.44;4991010;28;20029;-62
2023/05/25 00:22:11;;;;;;;17.52;4.85;;;;;;;12.33;100.00;102722.63;4990559;28;20381;-61
2023/05/25 00:24:38;;;;;;;21.63;6.03;;;;;;;12.28;100.00;102727.06;4990552;28;20026;-61
2023/05/25 00:27:03;;;;;;;14.48;4.40;;;;;;;12.40;100.00;102719.91;4992794;28;20039;-62
2023/05/25 00:29:29;;;;;;;14.88;5.25;;;;;;;12.42;100.00;102723.41;4990758;28;20029;-62
2023/05/25 00:31:54;;;;;;;21.88;5.55;;;;;;;12.38;100.00;102727.88;4989733;28;20029;-62
2023/05/25 00:34:20;;;;;;;20.02;5.43;;;;;;;12.32;100.00;102728.81;4991478;28;20033;-62
2023/05/25 00:36:47;;;;;;;20.60;5.18;;;;;;;12.26;100.00;102729.72;4992250;28;20504;-62
2023/05/25 00:39:13;;;;;;;18.85;5.72;;;;;;;12.28;100.00;102731.50;4990594;28;20381;-62
2023/05/25 00:41:40;;;;;;;17.80;6.57;;;;;;;12.15;100.00;102736.91;4991236;28;20023;-62
2023/05/25 00:44:14;;;;;;;12.90;5.43;;;;;;;12.17;100.00;102735.13;5010531;28;20026;-62
2023/05/25 00:46:50;;;;;;;14.27;5.63;;;;;;;12.10;100.00;102736.94;4991875;28;20034;-62
2023/05/25 00:49:18;;;;;;;26.67;5.85;;;;;;;12.03;100.00;102743.16;4990067;28;20069;-62
2023/05/25 00:51:47;;;;;;;21.35;7.30;;;;;;;11.86;100.00;102738.91;4990839;28;20033;-64
2023/05/25 00:54:14;;;;;;;24.60;7.20;;;;;;;11.80;100.00;102733.66;4995763;28;20101;-64
2023/05/25 00:56:43;;;;;;;20.98;6.72;;;;;;;11.68;100.00;102736.44;4991254;28;20492;-64
2023/05/25 00:59:08;;;;;;;;;;;;;;;11.63;100.00;102739.97;4991118;28;20381;-60
2023/05/25 01:01:38;;;;;;;23.48;6.72;;;;;;;11.57;100.00;102729.47;4993149;28;19922;-62
2023/05/25 01:04:06;;;;;;;26.75;6.88;;;;;;;11.49;100.00;102737.44;4990981;28;20500;-62
2023/05/25 01:06:32;;;;;;;23.67;7.28;;;;;;;11.43;100.00;102736.59;4988857;28;20035;-62
2023/05/25 01:09:01;;;;;;;19.45;7.53;;;;;;;11.37;100.00;102746.31;5003658;28;20069;-62
2023/05/25 01:11:31;;;;;;;18.25;7.40;;;;;;;11.35;100.00;102752.50;4994985;28;20065;-62
2023/05/25 01:13:57;;;;;;;18.25;7.00;;;;;;;11.26;100.00;102750.81;4990121;28;20657;-62
2023/05/25 01:16:24;;;;;;;29.33;8.52;;;;;;;11.19;100.00;102749.06;4989012;28;20034;-62
2023/05/25 01:18:51;;;;;;;24.73;8.73;;;;;;;11.14;100.00;102756.13;4989638;28;20072;-62
2023/05/25 01:21:44;;;;;;;25.73;9.02;;;;;;;11.07;100.00;102752.63;4995297;28;20080;-62
2023/05/25 01:24:40;;;;;;;27.98;9.02;;;;;;;11.05;100.00;102755.28;5008715;28;20116;-61
2023/05/25 01:27:11;;;;;;;22.70;8.27;;;;;;;11.07;100.00;102757.91;5008016;28;20534;-62
2023/05/25 01:29:39;;;;;;;30.20;9.85;;;;;;;11.08;100.00;102757.91;5002961;28;20027;-61
2023/05/25 01:32:05;;;;;;;22.92;8.25;;;;;;;11.09;100.00;102758.78;4988576;28;20113;-62
2023/05/25 01:34:31;;;;;;;23.27;9.13;;;;;;;11.04;100.00;102766.72;4987589;28;20106;-62
2023/05/25 01:36:56;;;;;;;26.77;10.15;;;;;;;10.98;100.00;102758.84;4991755;28;20034;-62
2023/05/25 01:39:22;;;;;;;28.70;9.98;;;;;;;10.88;100.00;102760.66;4987303;28;20487;-62
2023/05/25 01:41:47;;;;;;;26.65;10.15;;;;;;;10.82;100.00;102758.94;4988400;28;20470;-62
2023/05/25 01:44:13;;;;;;;31.27;11.13;;;;;;;10.76;100.00;102756.31;4989438;28;20109;-62
2023/05/25 01:46:39;;;;;;;30.95;10.70;;;;;;;10.70;100.00;102764.22;4989411;28;20432;-62
2023/05/25 01:49:11;;;;;;;25.73;11.25;;;;;;;10.69;100.00;102765.13;4987611;28;20456;-61
2023/05/25 01:52:00;;;;;;;25.95;10.63;;;;;;;10.73;100.00;102769.50;4991030;28;20030;-61
2023/05/25 01:54:35;;;;;;;27.83;9.90;;;;;;;10.66;100.00;102776.56;5003623;28;20326;-62
2023/05/25 01:57:01;;;;;;;39.53;11.50;;;;;;;10.70;100.00;102772.16;4996494;28;20050;-62
2023/05/25 01:59:27;;;;;;;28.98;11.65;;;;;;;10.68;100.00;102779.16;4988927;28;20141;-62
2023/05/25 02:01:53;;;;;;;29.92;12.13;;;;;;;10.64;100.00;102774.78;5003746;28;20041;-62
2023/05/25 02:04:18;;;;;;;30.38;12.20;;;;;;;10.63;100.00;102773.94;4988798;28;20022;-62
2023/05/25 02:06:47;;;;;;;31.17;12.45;;;;;;;10.58;100.00;102776.59;4988979;28;20038;-62
2023/05/25 02:09:12;;;;;;;33.13;11.90;;;;;;;10.63;100.00;102773.06;4987875;28;20026;-62
2023/05/25 02:11:38;;;;;;;33.00;12.77;;;;;;;10.58;100.00;102770.44;4988802;28;20093;-62
2023/05/25 02:14:03;;;;;;;40.47;14.18;;;;;;;10.57;100.00;102772.16;4989891;28;20053;-61
2023/05/25 02:16:28;;;;;;;31.30;13.05;;;;;;;10.61;100.00;102778.31;4989278;28;20072;-62
2023/05/25 02:18:56;;;;;;;36.60;13.77;;;;;;;10.58;100.00;102773.94;4988214;28;20027;-60
2023/05/25 02:21:22;;;;;;;38.97;13.88;;;;;;;10.63;100.00;102778.31;4989029;28;20077;-61
2023/05/25 02:23:48;;;;;;;40.95;14.70;;;;;;;10.71;100.00;102789.72;4986264;28;20567;-63
2023/05/25 02:26:13;;;;;;;41.67;13.77;;;;;;;10.74;100.00;102773.88;4987901;28;20073;-63
2023/05/25 02:28:38;;;;;;;31.35;13.52;;;;;;;10.73;100.00;102780.94;4987429;28;20062;-62
2023/05/25 02:31:04;;;;;;;43.03;15.15;;;;;;;10.76;100.00;102777.41;4989306;28;20374;-62
2023/05/25 02:33:29;;;;;;;35.42;13.15;;;;;;;10.77;100.00;102784.41;5006505;28;20033;-61
2023/05/25 02:35:55;;;;;;;37.72;14.63;;;;;;;10.73;100.00;102783.56;5007253;28;20034;-61
2023/05/25 02:38:20;;;;;;;33.38;12.38;;;;;;;10.80;100.00;102779.13;5007167;28;20754;-62
2023/05/25 02:40:45;;;;;;;36.78;13.82;;;;;;;10.68;100.00;102787.97;4999340;28;20037;-60
2023/05/25 02:43:11;;;;;;;33.88;13.65;;;;;;;10.65;100.00;102785.34;4988395;28;20513;-62
2023/05/25 02:45:36;;;;;;;33.85;14.07;;;;;;;10.67;100.00;102787.97;4986946;28;20033;-61
2023/05/25 02:48:01;;;;;;;26.58;13.23;;;;;;;10.65;100.00;102787.13;4985970;28;20034;-61
2023/05/25 02:50:27;;;;;;;36.85;14.77;;;;;;;10.69;100.00;102791.50;4989781;28;20472;-63
2023/05/25 02:52:52;;;;;;;30.13;13.93;;;;;;;10.70;100.00;102787.97;4988312;28;20485;-63
2023/05/25 02:55:18;;;;;;;38.70;16.50;;;;;;;10.74;100.00;102793.22;4986449;28;20031;-62
2023/05/25 02:57:43;;;;;;;35.50;14.70;;;;;;;10.73;100.00;102793.22;4988676;28;20091;-62
2023/05/25 03:00:12;;;;;;;43.53;16.85;;;;;;;10.63;100.00;102791.50;4989178;28;20058;-62
2023/05/25 03:02:37;;;;;;;39.97;15.48;;;;;;;10.56;100.00;102796.78;4988096;28;20027;-62
2023/05/25 03:05:03;;;;;;;44.97;16.67;;;;;;;10.54;100.00;102800.31;4987098;28;20026;-62
2023/05/25 03:07:28;;;;;;;33.05;14.45;;;;;;;10.48;100.00;102794.16;4989503;28;20389;-62
2023/05/25 03:09:54;;;;;;;32.40;14.88;;;;;;;10.42;100.00;102794.13;4987282;28;20023;-61
2023/05/25 03:12:19;;;;;;;39.85;15.07;;;;;;;10.41;100.00;102797.66;4986820;28;20492;-62
2023/05/25 03:14:45;;;;;;;31.63;12.85;;;;;;;10.38;100.00;102799.44;4988131;28;20038;-61
2023/05/25 03:17:10;;;;;;;32.63;14.63;;;;;;;10.33;100.00;102802.09;4991549;28;20062;-62
2023/05/25 03:19:35;;;;;;;32.47;13.93;;;;;;;10.30;100.00;102805.56;4987928;28;20135;-61
2023/05/25 03:22:02;;;;;;;30.17;13.18;;;;;;;10.31;100.00;102806.47;4987497;28;20476;-61
2023/05/25 03:24:27;;;;;;;36.75;14.25;;;;;;;10.25;100.00;102799.44;4986861;28;20030;-62
2023/05/25 03:26:53;;;;;;;29.45;13.35;;;;;;;10.22;100.00;102802.09;4988977;28;20080;-61
2023/05/25 03:29:18;;;;;;;31.23;13.50;;;;;;;10.19;100.00;102802.09;4987265;28;20565;-61
2023/05/25 03:31:43;;;;;;;34.58;14.10;;;;;;;10.19;100.00;102802.09;4986841;28;20560;-63
2023/05/25 03:34:08;;;;;;;28.17;13.52;;;;;;;10.15;100.00;102800.34;4988284;28;20388;-63
2023/05/25 03:36:36;;;;;;;27.83;12.68;;;;;;;10.09;100.00;102788.91;4987818;28;20461;-63
2023/05/25 03:39:02;;;;;;;29.92;13.75;;;;;;;10.10;100.00;102792.44;4985567;28;20053;-63
2023/05/25 03:41:27;;;;;;;39.92;13.98;;;;;;;10.11;100.00;102800.34;4986451;28;20034;-61
2023/05/25 03:43:52;;;;;;;32.63;13.73;;;;;;;10.11;100.00;102797.69;4992418;28;20052;-61
2023/05/25 03:46:18;;;;;;;25.73;13.25;;;;;;;10.10;100.00;102802.97;4987560;28;20049;-60
2023/05/25 03:48:43;;;;;;;29.80;13.10;;;;;;;10.09;100.00;102799.44;4986598;28;20029;-62
2023/05/25 03:51:08;;;;;;;40.15;14.60;;;;;;;10.07;100.00;102806.50;4987986;28;20092;-61
2023/05/25 03:53:34;;;;;;;41.25;15.18;;;;;;;10.02;100.00;102810.88;4988809;28;20057;-61
2023/05/25 03:55:59;;;;;;;36.65;14.20;;;;;;;10.03;100.00;102807.38;4987577;28;20050;-61
2023/05/25 03:58:25;;;;;;;31.42;13.50;;;;;;;10.02;100.00;102813.50;4985290;28;20046;-61
2023/05/25 04:00:51;;;;;;;35.05;14.18;;;;;;;10.06;100.00;102819.66;5016616;28;20037;-61
2023/05/25 04:03:16;;;;;;;35.22;14.43;;;;;;;10.03;100.00;102823.19;4991776;28;20027;-63
2023/05/25 04:05:44;;;;;;;32.05;13.52;;;;;;;10.06;100.00;102822.28;4987338;28;20033;-62
2023/05/25 04:08:09;;;;;;;34.72;15.18;;;;;;;10.07;100.00;102818.78;5005003;28;20393;-65
2023/05/25 04:10:35;;;;;;;43.00;14.38;;;;;;;10.04;100.00;102819.66;4987753;28;20027;-63
2023/05/25 04:13:00;;;;;;;38.65;14.57;;;;;;;10.08;100.00;102815.25;4985784;28;20054;-62
2023/05/25 04:15:25;;;;;;;29.02;13.43;;;;;;;10.05;100.00;102821.41;4987435;28;20040;-60
2023/05/25 04:17:51;;;;;;;32.63;13.07;;;;;;;10.11;100.00;102825.78;4988187;28;20070;-62
2023/05/25 04:20:16;;;;;;;25.17;12.85;;;;;;;10.09;100.00;102825.78;4986962;28;20038;-61
2023/05/25 04:22:43;;;;;;;29.00;12.57;;;;;;;10.17;100.00;102820.53;4986790;28;20057;-62
2023/05/25 04:25:09;;;;;;;32.22;13.02;;;;;;;10.18;100.00;102829.31;4987887;28;20532;-62
2023/05/25 04:27:35;;;;;;;34.25;13.55;;;;;;;10.21;100.00;102824.91;4987823;28;20117;-61
2023/05/25 04:30:00;;;;;;;35.78;12.40;;;;;;;10.23;100.00;102830.19;4991416;28;20100;-62
2023/05/25 04:32:28;;;;;;;30.45;12.35;;;;;;;10.28;100.00;102832.81;4986479;28;20473;-64
2023/05/25 04:34:55;;;;;;;38.20;13.13;;;;;;;10.31;100.00;102828.44;4990566;28;20076;-61
2023/05/25 04:37:21;;;;;;;26.60;12.13;;;;;;;10.40;100.00;102829.28;5007308;28;20026;-61
2023/05/25 04:39:46;;;;;;;35.95;11.23;;;;;;;10.43;100.00;102834.56;4995144;28;20039;-61
2023/05/25 04:42:12;;;;;;;30.77;12.32;;;;;;;10.52;100.00;102831.06;4998753;28;20072;-60
2023/05/25 04:44:38;;;;;;;28.10;11.75;;;;;;;10.63;100.00;102839.84;4990658;28;20034;-62
2023/05/25 04:47:04;;;;;;;26.23;11.75;;;;;;;10.70;100.00;102845.97;4996169;28;20363;-62
2023/05/25 04:49:30;;;;;;;25.20;10.88;;;;;;;10.73;100.00;102851.25;4988636;28;20026;-63
2023/05/25 04:51:55;;;;;;;24.45;10.63;;;;;;;10.80;100.00;102849.44;4986848;28;20381;-62
2023/05/25 04:54:20;;;;;;;27.38;11.10;;;;;;;10.87;100.00;102848.59;4986760;28;20054;-62
2023/05/25 04:56:46;;;;;;;20.63;11.05;;;;;;;10.93;100.00;102858.22;5003144;28;20034;-64
2023/05/25 04:59:11;;;;;;;25.55;10.60;;;;;;;10.95;100.00;102857.34;4992185;28;20488;-61
2023/05/25 05:01:39;;;;;;;26.45;10.52;;;;;;;11.03;100.00;102859.94;5009945;28;20022;-61
2023/05/25 05:04:06;;;;;;;26.40;11.20;;;;;;;11.00;100.00;102854.69;5009513;28;20125;-61
2023/05/25 05:06:31;;;;;;;28.25;11.13;;;;;;;11.14;100.00;102862.56;5008760;28;20034;-63
2023/05/25 05:08:56;;;;;;;31.13;11.95;;;;;;;11.10;100.00;102871.34;5008401;28;20377;-63
2023/05/25 05:11:22;;;;;;;16.95;9.18;;;;;;;11.20;100.00;102869.56;4996528;28;20688;-60
2023/05/25 05:13:47;;;;;;;24.15;10.45;;;;;;;11.28;100.00;102870.41;4988920;28;20074;-61
2023/05/25 05:16:13;;;;;;;22.00;10.10;;;;;;;11.29;100.00;102866.88;4989137;28;20061;-61
2023/05/25 05:18:38;;;;;;;42.53;13.68;;;;;;;11.20;100.00;102867.78;4990860;28;20026;-61
2023/05/25 05:21:03;;;;;;;36.40;10.15;;;;;;;11.36;100.00;102865.09;4988369;28;20030;-62
2023/05/25 05:23:29;;;;;;;25.60;9.65;;;;;;;11.47;100.00;102870.34;4988497;28;20118;-61
2023/05/25 05:25:54;;;;;;;22.63;9.10;;;;;;;11.50;100.00;102867.69;4989676;28;20487;-63
2023/05/25 05:28:20;;;;;;;19.80;8.55;;;;;;;11.67;100.00;102867.56;4991697;28;20037;-62
2023/05/25 05:30:46;;;;;;;24.58;8.70;;;;;;;11.75;100.00;102865.75;4989038;28;20113;-61
2023/05/25 05:33:12;;;;;;;17.27;7.75;;;;;;;11.87;100.00;102872.72;4988699;28;20027;-62
2023/05/25 05:35:37;;;;;;;17.50;7.78;;;;;;;12.00;100.00;102875.28;4989626;28;20081;-63
2023/05/25 05:38:03;;;;;;;17.95;6.75;;;;;;;12.16;100.00;102880.50;4993727;28;20469;-62
2023/05/25 05:40:29;;;;;;;18.05;7.22;;;;;;;12.30;100.00;102881.25;5007455;28;20025;-62
2023/05/25 05:42:54;;;;;;;16.33;7.43;;;;;;;12.44;100.00;102875.84;5006829;28;20366;-63
2023/05/25 05:45:20;;;;;;;20.42;7.03;;;;;;;12.50;100.00;102885.50;5004312;28;20018;-61
2023/05/25 05:47:45;;;;;;;18.77;6.50;;;;;;;12.54;100.00;102879.28;4999889;28;20488;-63
2023/05/25 05:50:10;;;;;;;18.80;6.32;;;;;;;12.43;100.00;102884.66;4995352;28;20250;-62
2023/05/25 05:52:36;;;;;;;13.15;5.90;;;;;;;12.49;100.00;102884.59;4996751;28;20054;-60
2023/05/25 05:55:01;;;;;;;12.23;5.90;;;;;;;12.41;100.00;102883.81;4997472;28;20097;-62
2023/05/25 05:57:27;;;;;;;11.90;5.22;;;;;;;12.62;100.00;102892.44;4994016;28;20029;-61
2023/05/25 05:59:52;;;;;;;13.25;5.50;;;;;;;12.57;100.00;102895.13;4993232;28;20029;-62
2023/05/25 06:02:18;;;;;;;14.65;5.55;;;;;;;12.57;100.00;102902.16;4996195;28;20092;-62
2023/05/25 06:04:43;;;;;;;18.77;5.75;;;;;;;12.58;100.00;102903.94;4997717;28;20021;-64
2023/05/25 06:07:08;;;;;;;18.98;5.40;;;;;;;12.53;100.00;102908.38;4991064;28;20045;-61
2023/05/25 06:09:34;;;;;;;11.65;5.45;;;;;;;12.54;100.00;102926.88;4991999;28;20476;-62
2023/05/25 06:12:00;;;;;;;16.15;5.60;;;;;;;12.62;100.00;102914.44;4989749;28;20065;-59
2023/05/25 06:14:25;;;;;;;9.73;4.85;;;;;;;12.64;100.00;102915.31;4994353;28;20027;-63
2023/05/25 06:16:51;;;;;;;15.90;4.80;;;;;;;12.75;100.00;102914.34;4996013;28;20041;-62
2023/05/25 06:19:16;;;;;;;13.50;5.10;;;;;;;12.85;100.00;102917.75;4995831;28;20100;-62
2023/05/25 06:21:41;;;;;;;23.42;6.10;;;;;;;13.00;100.00;102919.38;4991510;28;20026;-62
2023/05/25 06:24:07;;;;;;;13.45;5.00;;;;;;;13.29;100.00;102914.66;4998049;28;20022;-63
2023/05/25 06:26:32;;;;;;;19.13;5.45;;;;;;;13.16;100.00;102921.88;4992646;28;20061;-62
2023/05/25 06:28:57;;;;;;;15.75;5.55;;;;;;;13.16;100.00;102920.09;4994120;28;20083;-63
2023/05/25 06:31:23;;;;;;;16.70;5.35;;;;;;;13.14;100.00;102920.13;4993755;28;20031;-63
2023/05/25 06:33:48;;;;;;;21.80;6.00;;;;;;;13.22;100.00;102917.34;4986589;28;20465;-62
2023/05/25 06:36:14;;;;;;;11.90;4.90;;;;;;;13.45;100.00;102920.66;4986095;28;20037;-63
2023/05/25 06:38:39;;;;;;;15.50;5.32;;;;;;;13.72;100.00;102924.72;4986636;28;20037;-64
2023/05/25 06:41:06;;;;;;;14.02;5.35;;;;;;;13.74;100.00;102928.25;4988373;28;20034;-62
2023/05/25 06:43:31;;;;;;;20.95;5.63;;;;;;;14.01;100.00;102926.09;5003533;28;20033;-61
2023/05/25 06:45:57;;;;;;;18.23;6.20;;;;;;;14.08;100.00;102928.63;4991702;28;20022;-61
2023/05/25 06:48:23;;;;;;;12.20;4.72;;;;;;;14.04;100.00;102933.13;4994733;28;20022;-62
2023/05/25 06:50:48;;;;;;;12.70;5.15;;;;;;;14.36;100.00;102929.06;4994031;28;20030;-62
2023/05/25 06:53:14;;;;;;;14.10;5.25;;;;;;;14.30;100.00;102929.16;5006473;28;20107;-65
2023/05/25 06:55:39;;;;;;;13.75;6.13;;;;;;;14.45;100.00;102941.28;5006926;28;20025;-66
2023/05/25 06:58:04;;;;;;;17.20;5.68;;;;;;;14.66;100.00;102942.72;5007486;28;20041;-63
2023/05/25 07:00:30;;;;;;;18.55;5.88;;;;;;;14.62;100.00;102938.38;5002573;28;20025;-63
2023/05/25 07:02:55;;;;;;;14.57;5.28;;;;;;;14.90;100.00;102934.38;4987775;28;20092;-63
2023/05/25 07:05:20;;;;;;;12.30;5.28;;;;;;;15.02;100.00;102942.09;4986898;28;20033;-63
2023/05/25 07:07:46;;;;;;;17.00;5.78;;;;;;;15.15;100.00;102944.53;4985331;28;20033;-62
2023/05/25 07:10:11;;;;;;;17.30;5.43;;;;;;;15.19;100.00;102947.97;4986149;28;20510;-62
2023/05/25 07:12:36;;;;;;;12.95;5.15;;;;;;;15.21;100.00;102949.72;4985041;28;20417;-63
2023/05/25 07:15:02;;;;;;;11.63;4.97;;;;;;;15.58;100.00;102953.38;4983337;28;20144;-62
2023/05/25 07:17:27;;;;;;;13.98;4.70;;;;;;;15.90;100.00;102953.59;4983776;28;20026;-64
2023/05/25 07:19:53;;;;;;;13.20;4.65;;;;;;;16.07;100.00;102955.88;4987136;28;20150;-64
2023/05/25 07:22:18;;;;;;;10.95;4.50;;;;;;;16.02;100.00;102963.97;4984113;28;20109;-63
2023/05/25 07:24:47;;;;;;;13.27;4.82;;;;;;;15.98;100.00;102962.28;4985179;28;20057;-63
2023/05/25 07:27:15;;;;;;;15.50;5.00;;;;;;;15.62;100.00;102959.53;4985048;28;20081;-65
2023/05/25 07:29:40;;;;;;;9.82;5.25;;;;;;;15.47;100.00;102960.72;4987078;28;20544;-63
2023/05/25 07:32:06;;;;;;;12.50;4.78;;;;;;;15.22;100.00;102963.84;4986626;28;20158;-63
2023/05/25 07:34:34;;;;;;;8.63;3.50;;;;;;;15.07;100.00;102963.25;4995502;28;20129;-64
2023/05/25 07:36:59;;;;;;;8.17;2.83;;;;;;;15.01;100.00;102968.66;4998946;28;20489;-63
2023/05/25 07:39:25;;;;;;;10.20;3.95;;;;;;;14.85;100.00;102974.28;4985761;28;20035;-63
2023/05/25 07:41:50;;;;;;;13.65;4.32;;;;;;;14.89;100.00;102967.13;4984335;28;20026;-63
2023/05/25 07:44:16;;;;;;;8.98;4.25;;;;;;;14.83;100.00;102970.75;4999817;28;20409;-61
2023/05/25 07:46:41;;;;;;;13.60;4.10;;;;;;;14.94;100.00;102967.03;4989830;28;20240;-62
2023/05/25 07:49:11;;;;;;;11.85;4.40;;;;;;;15.00;100.00;102956.31;4985613;28;20037;-62
2023/05/25 07:51:37;;;;;;;11.98;4.03;;;;;;;15.26;100.00;102968.22;4984502;28;20398;-63
2023/05/25 07:54:02;;;;;;;7.85;4.20;;;;;;;15.54;100.00;102970.31;4984762;28;20081;-63
2023/05/25 07:56:28;;;;;;;10.13;3.30;;;;;;;15.23;100.00;102977.09;5003551;28;20551;-62
2023/05/25 07:58:53;;;;;;;6.28;3.20;;;;;;;15.65;100.00;102968.28;5004727;28;20030;-63
2023/05/25 08:01:18;;;;;;;7.60;3.83;;;;;;;15.86;100.00;102975.84;4995479;28;20127;-62
2023/05/25 08:03:44;;;;;;;15.10;4.60;;;;;;;16.19;100.00;102981.31;4985623;28;20054;-62
2023/05/25 08:06:09;;;;;;;11.00;4.60;;;;;;;16.03;100.00;102983.47;4984368;28;20041;-63
2023/05/25 08:08:36;;;;;;;11.07;3.97;;;;;;;16.19;100.00;102988.44;4985093;28;20042;-61
2023/05/25 08:11:01;;;;;;;12.18;3.90;;;;;;;16.12;100.00;102995.66;4988841;28;20019;-64
2023/05/25 08:13:27;;;;;;;9.25;3.60;;;;;;;15.76;100.00;102983.13;4985399;28;20595;-65
2023/05/25 08:15:52;;;;;;;16.45;4.05;;;;;;;15.86;100.00;102992.66;4984677;28;20040;-63
2023/05/25 08:18:18;;;;;;;14.63;4.10;;;;;;;15.64;100.00;102992.22;4984793;28;20054;-62
2023/05/25 08:20:43;;;;;;;17.38;3.85;;;;;;;15.61;100.00;102995.84;4990947;28;20031;-64
2023/05/25 08:23:08;;;;;;;8.75;3.20;;;;;;;15.62;100.00;103000.25;4984346;28;20651;-64
2023/05/25 08:25:34;;;;;;;8.43;3.50;;;;;;;15.73;100.00;103004.44;4984794;28;20030;-64
2023/05/25 08:27:59;;;;;;;8.93;3.35;;;;;;;15.66;100.00;103006.38;4985860;28;20022;-63
2023/05/25 08:30:25;;;;;;;7.70;3.25;;;;;;;15.85;100.00;103003.31;4989059;28;20376;-63
2023/05/25 08:32:50;;;;;;;8.32;3.22;;;;;;;15.43;100.00;103005.06;4988224;28;20018;-64
2023/05/25 08:35:16;;;;;;;8.23;3.50;;;;;;;15.68;100.00;103009.84;4990458;28;20149;-63
2023/05/25 08:37:42;;;;;;;5.65;2.80;;;;;;;16.03;100.00;103002.97;4989081;28;20026;-62
2023/05/25 08:40:13;;;;;;;8.05;3.53;;;;;;;16.31;100.00;103014.72;4987864;28;20030;-66
2023/05/25 08:42:40;;;;;;;8.75;3.22;;;;;;;16.44;100.00;103014.44;4991762;28;20026;-63
2023/05/25 08:45:07;;;;;;;10.32;3.15;;;;;;;16.66;100.00;103010.34;4992392;28;20031;-64
2023/05/25 08:47:35;;;;;;;7.65;3.20;;;;;;;16.52;100.00;103020.44;4988715;28;20042;-64
2023/05/25 08:50:02;;;;;;;8.85;3.17;;;;;;;16.50;100.00;103022.28;4987294;28;20037;-64
2023/05/25 08:52:28;;;;;;;9.75;3.53;;;;;;;16.30;100.00;103015.66;5003225;28;20026;-63
2023/05/25 08:54:54;;;;;;;12.77;3.47;;;;;;;16.33;100.00;103014.69;4988834;28;20432;-63
2023/05/25 08:57:25;;;;;;;8.45;2.78;;;;;;;16.36;100.00;103015.50;4986921;28;20027;-63
2023/05/25 09:00:03;;;;;;;8.88;3.35;;;;;;;16.08;100.00;103015.25;4991772;28;20034;-64
2023/05/25 09:02:57;;;;;;;6.85;3.10;;;;;;;15.96;100.00;103017.31;5007342;28;20018;-63
2023/05/25 09:05:22;;;;;;;9.40;3.08;;;;;;;15.87;100.00;103012.13;5008663;28;20117;-64
2023/05/25 09:07:48;;;;;;;4.55;2.58;;;;;;;15.98;100.00;103012.81;5001827;28;20168;-64
2023/05/25 09:10:14;;;;;;;6.60;2.83;;;;;;;16.01;100.00;103019.84;5009774;28;20053;-66
2023/05/25 09:12:40;;;;;;;11.18;3.05;;;;;;;16.26;100.00;103013.97;5008016;28;20124;-64
2023/05/25 09:15:07;;;;;;;13.55;3.22;;;;;;;16.60;100.00;103007.84;4993749;28;20030;-63
2023/05/25 09:17:32;;;;;;;7.15;2.97;;;;;;;16.64;100.00;103008.63;4999399;28;20088;-63
2023/05/25 09:19:58;;;;;;;8.88;2.78;;;;;;;16.98;100.00;103012.22;5006629;28;20017;-63
2023/05/25 09:22:23;;;;;;;6.53;2.67;;;;;;;16.79;100.00;103012.69;5005722;28;20113;-63
2023/05/25 09:24:48;;;;;;;8.70;2.80;;;;;;;17.16;100.00;103006.41;5005006;28;20084;-64
2023/05/25 09:27:20;;;;;;;8.07;3.25;;;;;;;16.98;98.48;103004.22;4987937;28;20125;-64
2023/05/25 09:29:47;;;;;;;17.10;3.20;;;;;;;17.05;99.97;103009.34;4987613;28;20042;-62
2023/05/25 09:32:13;;;;;;;9.90;3.20;;;;;;;17.59;98.46;103007.91;4987872;28;20029;-65
2023/05/25 09:34:38;;;;;;;7.10;2.90;;;;;;;17.48;95.92;103008.22;4990126;28;20019;-66
2023/05/25 09:37:15;;;;;;;5.50;2.50;;;;;;;17.87;93.45;103007.97;5005236;28;20535;-64
2023/05/25 09:39:43;;;;;;;9.68;3.13;;;;;;;17.72;96.05;103014.63;4982170;28;20421;-64
2023/05/25 09:42:10;;;;;;;7.43;3.17;;;;;;;17.70;93.20;103015.59;4986373;28;20382;-64
2023/05/25 09:44:35;;;;;;;6.25;2.80;;;;;;;17.56;92.70;103008.88;4987219;28;20077;-63
2023/05/25 09:47:01;;;;;;;6.53;2.40;;;;;;;17.35;93.04;103008.59;4990206;28;20061;-62
2023/05/25 09:49:26;;;;;;;7.25;2.55;;;;;;;17.53;92.67;103007.19;5003791;28;20113;-62
2023/05/25 09:51:52;;;;;;;8.38;2.30;;;;;;;18.19;89.66;103008.78;4995642;28;20487;-65
2023/05/25 09:54:17;;;;;;;10.30;3.20;;;;;;;18.58;88.15;103012.00;4992366;28;20540;-64
2023/05/25 09:56:43;;;;;;;7.07;3.03;;;;;;;18.94;86.88;103011.66;4996685;28;20173;-65
2023/05/25 09:59:08;;;;;;;22.38;2.95;;;;;;;18.73;82.96;103015.97;4991937;28;20683;-64
2023/05/25 10:01:33;;;;;;;16.27;2.85;;;;;;;18.54;77.04;103015.69;4999546;28;20021;-64
2023/05/25 10:04:00;;;;;;;6.78;2.42;;;;;;;18.54;75.60;103013.00;4999991;28;20041;-63
2023/05/25 10:06:26;;;;;;;8.75;2.63;;;;;;;18.28;77.89;103014.75;4988569;28;20030;-64
2023/05/25 10:08:52;;;;;;;8.43;2.60;;;;;;;18.08;77.98;103005.56;4988755;28;20087;-64
2023/05/25 10:11:20;;;;;;;10.70;3.10;;;;;;;18.21;80.61;103018.56;4992859;28;20021;-65
2023/05/25 10:13:46;;;;;;;6.53;2.60;;;;;;;17.76;82.86;103015.44;5000078;28;20065;-65
2023/05/25 10:16:18;;;;;;;9.52;2.78;;;;;;;17.37;86.17;103014.72;4989883;28;20092;-63
2023/05/25 10:18:49;;;;;;;7.15;2.35;;;;;;;17.35;85.32;103016.56;4987860;28;20548;-64
2023/05/25 10:21:16;;;;;;;10.48;3.10;;;;;;;17.76;84.62;103020.75;5003721;28;20050;-64
2023/05/25 10:23:46;;;;;;;6.63;2.40;;;;;;;17.60;86.97;103023.88;4989774;28;20077;-64
2023/05/25 10:26:15;;;;;;;9.10;2.50;;;;;;;17.58;88.31;103025.69;5004051;28;20096;-68
2023/05/25 10:28:41;;;;;;;;;;;;;;;17.32;91.31;103022.00;4988312;28;20099;-64
2023/05/25 10:31:08;;;;;;;10.30;2.40;;;;;;;17.15;91.16;103020.66;4987929;28;20012;-64
2023/05/25 10:33:33;;;;;;;11.63;2.75;;;;;;;17.16;92.24;103026.88;4987984;28;20339;-64
2023/05/25 10:36:00;;;;;;;9.52;2.90;;;;;;;17.34;93.74;103028.13;5002696;28;20021;-62
2023/05/25 10:38:27;;;;;;;9.32;2.60;;;;;;;17.16;92.97;103017.06;5001107;28;20113;-64
2023/05/25 10:40:53;;;;;;;11.48;2.72;;;;;;;17.16;92.78;103026.88;4993253;28;20030;-63
2023/05/25 10:43:19;;;;;;;11.38;2.90;;;;;;;17.48;91.15;103029.53;5004745;28;20033;-64
2023/05/25 10:45:45;;;;;;;8.40;3.20;;;;;;;17.64;91.20;103036.19;4987280;28;20026;-64
2023/05/25 10:48:10;;;;;;;12.68;3.47;;;;;;;17.72;91.32;103035.06;4988345;28;20033;-64
2023/05/25 10:50:36;;;;;;;9.38;2.90;;;;;;;17.94;90.03;103025.53;5003835;28;20091;-65
2023/05/25 10:53:03;;;;;;;12.68;3.55;;;;;;;18.54;88.50;103035.25;5004806;28;20030;-65
2023/05/25 10:55:31;;;;;;;9.25;2.83;;;;;;;18.64;87.22;103033.19;5005952;28;20030;-63
2023/05/25 10:58:08;;;;;;;9.55;3.40;;;;;;;19.59;82.14;103025.47;5006105;28;20034;-63
2023/05/25 11:00:33;;;;;;;11.38;3.00;;;;;;;19.04;86.18;103024.69;5006289;28;20037;-64
2023/05/25 11:02:59;;;;;;;9.45;3.38;;;;;;;19.02;86.05;103029.25;5006074;28;20030;-63
2023/05/25 11:05:31;;;;;;;11.93;3.05;;;;;;;19.11;84.04;103033.41;5006036;28;20168;-65